sensor_id;sensor_type;location;lat;lon;timestamp;temperature;humidity
66088;DHT22;52872;52.994;6.940;2023-02-01T00:02:20;7.20;99.90
66088;DHT22;52872;52.994;6.940;2023-02-01T00:04:47;7.20;99.90
66088;DHT22;52872;52.994;6.940;2023-02-01T00:07:14;7.20;99.90
66088;DHT22;52872;52.994;6.940;2023-02-01T00:09:41;7.20;99.90
66088;DHT22;52872;52.994;6.940;2023-02-01T00:12:08;7.20;99.90
66088;DHT22;52872;52.994;6.940;2023-02-01T00:14:35;7.20;99.90
66088;DHT22;52872;52.994;6.940;2023-02-01T00:17:06;7.20;99.90
66088;DHT22;52872;52.994;6.940;2023-02-01T00:19:35;7.20;99.90
66088;DHT22;52872;52.994;6.940;2023-02-01T00:22:02;7.20;99.90
66088;DHT22;52872;52.994;6.940;2023-02-01T00:24:29;7.30;99.90
66088;DHT22;52872;52.994;6.940;2023-02-01T00:26:56;7.30;99.90
66088;DHT22;52872;52.994;6.940;2023-02-01T00:29:23;7.30;99.90
66088;DHT22;52872;52.994;6.940;2023-02-01T00:31:51;7.30;99.90
66088;DHT22;52872;52.994;6.940;2023-02-01T00:34:19;7.40;99.90
66088;DHT22;52872;52.994;6.940;2023-02-01T00:36:47;7.40;99.90
66088;DHT22;52872;52.994;6.940;2023-02-01T00:39:15;7.40;99.90
66088;DHT22;52872;52.994;6.940;2023-02-01T00:41:43;7.40;99.90
66088;DHT22;52872;52.994;6.940;2023-02-01T00:44:10;7.40;99.90
66088;DHT22;52872;52.994;6.940;2023-02-01T00:46:37;7.40;99.90
66088;DHT22;52872;52.994;6.940;2023-02-01T00:49:04;7.40;99.90
66088;DHT22;52872;52.994;6.940;2023-02-01T00:51:33;7.50;99.90
66088;DHT22;52872;52.994;6.940;2023-02-01T00:54:00;7.50;99.90
66088;DHT22;52872;52.994;6.940;2023-02-01T00:56:29;7.40;99.90
66088;DHT22;52872;52.994;6.940;2023-02-01T00:58:56;7.50;99.90
66088;DHT22;52872;52.994;6.940;2023-02-01T01:01:25;7.50;99.90
66088;DHT22;52872;52.994;6.940;2023-02-01T01:03:57;7.50;99.90
66088;DHT22;52872;52.994;6.940;2023-02-01T01:06:27;7.50;99.90
66088;DHT22;52872;52.994;6.940;2023-02-01T01:08:57;7.50;99.90
66088;DHT22;52872;52.994;6.940;2023-02-01T01:11:27;7.50;99.90
66088;DHT22;52872;52.994;6.940;2023-02-01T01:13:56;7.50;99.90
66088;DHT22;52872;52.994;6.940;2023-02-01T01:16:24;7.50;99.90
66088;DHT22;52872;52.994;6.940;2023-02-01T01:18:53;7.50;99.90
66088;DHT22;52872;52.994;6.940;2023-02-01T01:21:22;7.50;99.90
66088;DHT22;52872;52.994;6.940;2023-02-01T01:23:49;7.50;99.90
66088;DHT22;52872;52.994;6.940;2023-02-01T01:26:19;7.50;99.90
66088;DHT22;52872;52.994;6.940;2023-02-01T01:28:47;7.50;99.90
66088;DHT22;52872;52.994;6.940;2023-02-01T01:31:16;7.50;99.90
66088;DHT22;52872;52.994;6.940;2023-02-01T01:33:44;7.50;99.90
66088;DHT22;52872;52.994;6.940;2023-02-01T01:36:12;7.50;99.90
66088;DHT22;52872;52.994;6.940;2023-02-01T01:38:40;7.50;99.90
66088;DHT22;52872;52.994;6.940;2023-02-01T01:41:09;7.60;99.90
66088;DHT22;52872;52.994;6.940;2023-02-01T01:46:33;7.70;99.90
66088;DHT22;52872;52.994;6.940;2023-02-01T01:49:04;7.70;99.90
66088;DHT22;52872;52.994;6.940;2023-02-01T01:51:35;7.60;99.90
66088;DHT22;52872;52.994;6.940;2023-02-01T01:54:11;7.70;99.90
66088;DHT22;52872;52.994;6.940;2023-02-01T01:56:40;7.70;99.90
66088;DHT22;52872;52.994;6.940;2023-02-01T01:59:10;7.70;99.90
66088;DHT22;52872;52.994;6.940;2023-02-01T02:01:38;7.70;99.90
66088;DHT22;52872;52.994;6.940;2023-02-01T02:04:05;7.70;99.90
66088;DHT22;52872;52.994;6.940;2023-02-01T02:09:06;7.80;99.90
66088;DHT22;52872;52.994;6.940;2023-02-01T02:11:33;7.80;99.90
66088;DHT22;52872;52.994;6.940;2023-02-01T02:14:01;7.80;99.90
66088;DHT22;52872;52.994;6.940;2023-02-01T02:36:00;7.60;99.90
66088;DHT22;52872;52.994;6.940;2023-02-01T02:47:21;7.50;99.90
66088;DHT22;52872;52.994;6.940;2023-02-01T02:50:02;7.50;99.90
66088;DHT22;52872;52.994;6.940;2023-02-01T02:53:21;7.50;99.90
66088;DHT22;52872;52.994;6.940;2023-02-01T02:56:10;7.50;99.90
66088;DHT22;52872;52.994;6.940;2023-02-01T02:58:58;7.40;99.90
66088;DHT22;52872;52.994;6.940;2023-02-01T03:01:44;7.50;99.90
66088;DHT22;52872;52.994;6.940;2023-02-01T03:04:29;7.50;99.90
66088;DHT22;52872;52.994;6.940;2023-02-01T03:06:57;7.50;99.90
66088;DHT22;52872;52.994;6.940;2023-02-01T03:09:29;7.50;99.90
66088;DHT22;52872;52.994;6.940;2023-02-01T03:12:03;7.50;99.90
66088;DHT22;52872;52.994;6.940;2023-02-01T03:14:54;7.50;99.90
66088;DHT22;52872;52.994;6.940;2023-02-01T03:17:25;7.50;99.90
66088;DHT22;52872;52.994;6.940;2023-02-01T03:19:55;7.40;99.90
66088;DHT22;52872;52.994;6.940;2023-02-01T03:22:28;7.40;99.90
66088;DHT22;52872;52.994;6.940;2023-02-01T03:25:05;7.40;99.90
66088;DHT22;52872;52.994;6.940;2023-02-01T03:27:39;7.50;99.90
66088;DHT22;52872;52.994;6.940;2023-02-01T03:32:50;7.50;99.90
66088;DHT22;52872;52.994;6.940;2023-02-01T03:35:50;7.50;99.90
66088;DHT22;52872;52.994;6.940;2023-02-01T03:38:37;7.60;99.90
66088;DHT22;52872;52.994;6.940;2023-02-01T03:41:15;7.50;99.90
66088;DHT22;52872;52.994;6.940;2023-02-01T03:43:55;7.50;99.90
66088;DHT22;52872;52.994;6.940;2023-02-01T03:46:35;7.50;99.90
66088;DHT22;52872;52.994;6.940;2023-02-01T03:49:06;7.50;99.90
66088;DHT22;52872;52.994;6.940;2023-02-01T03:51:38;7.50;99.90
66088;DHT22;52872;52.994;6.940;2023-02-01T03:54:12;7.50;99.90
66088;DHT22;52872;52.994;6.940;2023-02-01T03:56:42;7.50;99.90
66088;DHT22;52872;52.994;6.940;2023-02-01T03:59:12;7.50;99.90
66088;DHT22;52872;52.994;6.940;2023-02-01T04:01:41;7.50;99.90
66088;DHT22;52872;52.994;6.940;2023-02-01T04:04:08;7.50;99.90
66088;DHT22;52872;52.994;6.940;2023-02-01T04:06:37;7.50;99.90
66088;DHT22;52872;52.994;6.940;2023-02-01T04:09:05;7.50;99.90
66088;DHT22;52872;52.994;6.940;2023-02-01T04:11:31;7.50;99.90
66088;DHT22;52872;52.994;6.940;2023-02-01T04:13:58;7.60;99.90
66088;DHT22;52872;52.994;6.940;2023-02-01T04:16:31;7.60;99.90
66088;DHT22;52872;52.994;6.940;2023-02-01T04:18:59;7.60;99.90
66088;DHT22;52872;52.994;6.940;2023-02-01T04:21:26;7.60;99.90
66088;DHT22;52872;52.994;6.940;2023-02-01T04:23:54;7.70;99.90
66088;DHT22;52872;52.994;6.940;2023-02-01T04:26:21;7.70;99.90
66088;DHT22;52872;52.994;6.940;2023-02-01T04:28:48;7.70;99.90
66088;DHT22;52872;52.994;6.940;2023-02-01T04:31:16;7.70;99.90
66088;DHT22;52872;52.994;6.940;2023-02-01T04:33:43;7.60;99.90
66088;DHT22;52872;52.994;6.940;2023-02-01T04:36:10;7.70;99.90
66088;DHT22;52872;52.994;6.940;2023-02-01T04:38:37;7.70;99.90
66088;DHT22;52872;52.994;6.940;2023-02-01T04:41:04;7.60;99.90
66088;DHT22;52872;52.994;6.940;2023-02-01T04:43:31;7.60;99.90
66088;DHT22;52872;52.994;6.940;2023-02-01T04:45:58;7.60;99.90
66088;DHT22;52872;52.994;6.940;2023-02-01T04:48:25;7.60;99.90
66088;DHT22;52872;52.994;6.940;2023-02-01T04:50:52;7.60;99.90
66088;DHT22;52872;52.994;6.940;2023-02-01T04:53:19;7.60;99.90
66088;DHT22;52872;52.994;6.940;2023-02-01T04:55:48;7.60;99.90
66088;DHT22;52872;52.994;6.940;2023-02-01T04:58:16;7.60;99.90
66088;DHT22;52872;52.994;6.940;2023-02-01T05:00:43;7.60;99.90
66088;DHT22;52872;52.994;6.940;2023-02-01T05:03:10;7.60;99.90
66088;DHT22;52872;52.994;6.940;2023-02-01T05:05:37;7.70;99.90
66088;DHT22;52872;52.994;6.940;2023-02-01T05:08:04;7.70;99.90
66088;DHT22;52872;52.994;6.940;2023-02-01T05:10:31;7.70;99.90
66088;DHT22;52872;52.994;6.940;2023-02-01T05:12:58;7.70;99.90
66088;DHT22;52872;52.994;6.940;2023-02-01T05:15:43;7.70;99.90
66088;DHT22;52872;52.994;6.940;2023-02-01T05:18:13;7.70;99.90
66088;DHT22;52872;52.994;6.940;2023-02-01T05:20:40;7.70;99.90
66088;DHT22;52872;52.994;6.940;2023-02-01T05:23:06;7.70;99.90
66088;DHT22;52872;52.994;6.940;2023-02-01T05:25:34;7.70;99.90
66088;DHT22;52872;52.994;6.940;2023-02-01T05:28:00;7.70;99.90
66088;DHT22;52872;52.994;6.940;2023-02-01T05:30:27;7.70;99.90
66088;DHT22;52872;52.994;6.940;2023-02-01T05:32:55;7.70;99.90
66088;DHT22;52872;52.994;6.940;2023-02-01T05:35:21;7.70;99.90
66088;DHT22;52872;52.994;6.940;2023-02-01T05:37:48;7.70;99.90
66088;DHT22;52872;52.994;6.940;2023-02-01T05:40:16;7.70;99.90
66088;DHT22;52872;52.994;6.940;2023-02-01T05:42:43;7.70;99.90
66088;DHT22;52872;52.994;6.940;2023-02-01T05:45:10;7.70;99.90
66088;DHT22;52872;52.994;6.940;2023-02-01T05:47:37;7.60;99.90
66088;DHT22;52872;52.994;6.940;2023-02-01T05:50:05;7.50;99.90
66088;DHT22;52872;52.994;6.940;2023-02-01T05:52:32;7.50;99.90
66088;DHT22;52872;52.994;6.940;2023-02-01T05:54:59;7.40;99.90
66088;DHT22;52872;52.994;6.940;2023-02-01T05:57:26;7.50;99.90
66088;DHT22;52872;52.994;6.940;2023-02-01T05:59:53;7.50;99.90
66088;DHT22;52872;52.994;6.940;2023-02-01T06:02:20;7.50;99.90
66088;DHT22;52872;52.994;6.940;2023-02-01T06:04:48;7.50;99.90
66088;DHT22;52872;52.994;6.940;2023-02-01T06:07:15;7.60;99.90
66088;DHT22;52872;52.994;6.940;2023-02-01T06:09:42;7.60;99.90
66088;DHT22;52872;52.994;6.940;2023-02-01T06:12:09;7.70;99.90
66088;DHT22;52872;52.994;6.940;2023-02-01T06:14:36;7.70;99.90
66088;DHT22;52872;52.994;6.940;2023-02-01T06:17:03;7.80;99.90
66088;DHT22;52872;52.994;6.940;2023-02-01T06:19:32;7.70;99.90
66088;DHT22;52872;52.994;6.940;2023-02-01T06:21:59;7.70;99.90
66088;DHT22;52872;52.994;6.940;2023-02-01T06:24:26;7.80;99.90
66088;DHT22;52872;52.994;6.940;2023-02-01T06:26:53;7.80;99.90
66088;DHT22;52872;52.994;6.940;2023-02-01T06:29:20;7.80;99.90
66088;DHT22;52872;52.994;6.940;2023-02-01T06:31:47;7.90;99.90
66088;DHT22;52872;52.994;6.940;2023-02-01T06:34:14;7.90;99.90
66088;DHT22;52872;52.994;6.940;2023-02-01T06:36:41;7.90;99.90
66088;DHT22;52872;52.994;6.940;2023-02-01T06:39:08;7.90;99.90
66088;DHT22;52872;52.994;6.940;2023-02-01T06:41:35;7.90;99.90
66088;DHT22;52872;52.994;6.940;2023-02-01T06:44:02;7.90;99.90
66088;DHT22;52872;52.994;6.940;2023-02-01T06:46:29;7.90;99.90
66088;DHT22;52872;52.994;6.940;2023-02-01T06:48:56;7.90;99.90
66088;DHT22;52872;52.994;6.940;2023-02-01T06:51:27;7.80;99.90
66088;DHT22;52872;52.994;6.940;2023-02-01T06:53:55;7.80;99.90
66088;DHT22;52872;52.994;6.940;2023-02-01T06:56:23;7.80;99.90
66088;DHT22;52872;52.994;6.940;2023-02-01T06:58:50;7.70;99.90
66088;DHT22;52872;52.994;6.940;2023-02-01T07:01:17;7.80;99.90
66088;DHT22;52872;52.994;6.940;2023-02-01T07:03:49;7.80;99.90
66088;DHT22;52872;52.994;6.940;2023-02-01T07:06:18;7.80;99.90
66088;DHT22;52872;52.994;6.940;2023-02-01T07:08:45;7.80;99.90
66088;DHT22;52872;52.994;6.940;2023-02-01T07:11:13;7.80;99.90
66088;DHT22;52872;52.994;6.940;2023-02-01T07:13:40;7.80;99.90
66088;DHT22;52872;52.994;6.940;2023-02-01T07:16:13;7.90;99.90
66088;DHT22;52872;52.994;6.940;2023-02-01T07:18:41;7.90;99.90
66088;DHT22;52872;52.994;6.940;2023-02-01T07:21:09;8.00;99.90
66088;DHT22;52872;52.994;6.940;2023-02-01T07:23:36;8.00;99.90
66088;DHT22;52872;52.994;6.940;2023-02-01T07:26:05;8.00;99.90
66088;DHT22;52872;52.994;6.940;2023-02-01T07:28:35;8.00;99.90
66088;DHT22;52872;52.994;6.940;2023-02-01T07:31:07;8.00;99.90
66088;DHT22;52872;52.994;6.940;2023-02-01T07:33:34;8.00;99.90
66088;DHT22;52872;52.994;6.940;2023-02-01T07:36:04;8.00;99.90
66088;DHT22;52872;52.994;6.940;2023-02-01T07:38:32;8.00;99.90
66088;DHT22;52872;52.994;6.940;2023-02-01T07:41:00;8.10;99.90
66088;DHT22;52872;52.994;6.940;2023-02-01T07:43:28;8.10;99.90
66088;DHT22;52872;52.994;6.940;2023-02-01T07:45:56;8.10;99.90
66088;DHT22;52872;52.994;6.940;2023-02-01T07:48:25;8.10;99.90
66088;DHT22;52872;52.994;6.940;2023-02-01T07:51:06;8.20;99.90
66088;DHT22;52872;52.994;6.940;2023-02-01T07:53:34;8.20;99.90
66088;DHT22;52872;52.994;6.940;2023-02-01T07:56:16;8.20;99.90
66088;DHT22;52872;52.994;6.940;2023-02-01T07:58:47;8.20;99.90
66088;DHT22;52872;52.994;6.940;2023-02-01T08:01:23;8.20;99.90
66088;DHT22;52872;52.994;6.940;2023-02-01T08:03:56;8.20;99.90
66088;DHT22;52872;52.994;6.940;2023-02-01T08:06:23;8.20;99.90
66088;DHT22;52872;52.994;6.940;2023-02-01T08:08:52;8.20;99.90
66088;DHT22;52872;52.994;6.940;2023-02-01T08:11:21;8.20;99.90
66088;DHT22;52872;52.994;6.940;2023-02-01T08:13:48;8.20;99.90
66088;DHT22;52872;52.994;6.940;2023-02-01T08:16:17;8.30;99.90
66088;DHT22;52872;52.994;6.940;2023-02-01T08:18:44;8.30;99.90
66088;DHT22;52872;52.994;6.940;2023-02-01T08:21:13;8.40;99.90
66088;DHT22;52872;52.994;6.940;2023-02-01T08:23:42;8.40;99.90
66088;DHT22;52872;52.994;6.940;2023-02-01T08:28:43;8.40;99.90
66088;DHT22;52872;52.994;6.940;2023-02-01T08:31:15;8.50;99.90
66088;DHT22;52872;52.994;6.940;2023-02-01T08:33:47;8.50;99.90
66088;DHT22;52872;52.994;6.940;2023-02-01T08:36:14;8.50;99.90
66088;DHT22;52872;52.994;6.940;2023-02-01T08:38:41;8.50;99.90
66088;DHT22;52872;52.994;6.940;2023-02-01T08:41:13;8.50;99.90
66088;DHT22;52872;52.994;6.940;2023-02-01T08:43:41;8.50;99.90
66088;DHT22;52872;52.994;6.940;2023-02-01T08:46:08;8.50;99.90
66088;DHT22;52872;52.994;6.940;2023-02-01T08:48:37;8.50;99.90
66088;DHT22;52872;52.994;6.940;2023-02-01T08:51:06;8.50;99.90
66088;DHT22;52872;52.994;6.940;2023-02-01T08:53:33;8.60;99.90
66088;DHT22;52872;52.994;6.940;2023-02-01T08:56:01;8.60;99.90
66088;DHT22;52872;52.994;6.940;2023-02-01T08:58:28;8.60;99.90
66088;DHT22;52872;52.994;6.940;2023-02-01T09:00:55;8.60;99.90
66088;DHT22;52872;52.994;6.940;2023-02-01T09:03:22;8.70;99.90
66088;DHT22;52872;52.994;6.940;2023-02-01T09:05:49;8.70;99.90
66088;DHT22;52872;52.994;6.940;2023-02-01T09:08:18;8.70;99.90
66088;DHT22;52872;52.994;6.940;2023-02-01T09:10:46;8.70;99.90
66088;DHT22;52872;52.994;6.940;2023-02-01T09:13:13;8.70;99.90
66088;DHT22;52872;52.994;6.940;2023-02-01T09:15:40;8.80;99.90
66088;DHT22;52872;52.994;6.940;2023-02-01T09:18:07;8.80;99.90
66088;DHT22;52872;52.994;6.940;2023-02-01T09:20:36;8.80;99.90
66088;DHT22;52872;52.994;6.940;2023-02-01T09:23:03;8.80;99.90
66088;DHT22;52872;52.994;6.940;2023-02-01T09:25:30;8.80;99.90
66088;DHT22;52872;52.994;6.940;2023-02-01T09:27:57;8.80;99.90
66088;DHT22;52872;52.994;6.940;2023-02-01T09:30:24;8.80;99.90
66088;DHT22;52872;52.994;6.940;2023-02-01T09:32:51;8.80;99.90
66088;DHT22;52872;52.994;6.940;2023-02-01T09:35:18;8.80;99.90
66088;DHT22;52872;52.994;6.940;2023-02-01T09:37:45;8.80;99.90
66088;DHT22;52872;52.994;6.940;2023-02-01T09:40:16;8.80;99.90
66088;DHT22;52872;52.994;6.940;2023-02-01T09:48:26;8.80;99.90
66088;DHT22;52872;52.994;6.940;2023-02-01T09:50:58;8.80;99.90
66088;DHT22;52872;52.994;6.940;2023-02-01T09:53:37;8.70;99.90
66088;DHT22;52872;52.994;6.940;2023-02-01T09:56:11;8.80;99.90
66088;DHT22;52872;52.994;6.940;2023-02-01T09:58:49;8.80;99.90
66088;DHT22;52872;52.994;6.940;2023-02-01T10:01:21;8.80;99.90
66088;DHT22;52872;52.994;6.940;2023-02-01T10:04:04;8.80;99.90
66088;DHT22;52872;52.994;6.940;2023-02-01T10:12:41;8.70;99.90
66088;DHT22;52872;52.994;6.940;2023-02-01T10:26:23;8.50;99.90
66088;DHT22;52872;52.994;6.940;2023-02-01T10:28:53;8.40;99.90
66088;DHT22;52872;52.994;6.940;2023-02-01T10:31:24;8.40;99.90
66088;DHT22;52872;52.994;6.940;2023-02-01T10:34:00;8.40;99.90
66088;DHT22;52872;52.994;6.940;2023-02-01T10:36:35;8.40;99.90
66088;DHT22;52872;52.994;6.940;2023-02-01T10:39:08;8.30;99.90
66088;DHT22;52872;52.994;6.940;2023-02-01T10:41:39;8.30;99.90
66088;DHT22;52872;52.994;6.940;2023-02-01T10:44:16;8.30;99.90
66088;DHT22;52872;52.994;6.940;2023-02-01T10:46:43;8.40;99.90
66088;DHT22;52872;52.994;6.940;2023-02-01T10:49:18;8.40;99.90
66088;DHT22;52872;52.994;6.940;2023-02-01T10:52:09;8.40;99.90
66088;DHT22;52872;52.994;6.940;2023-02-01T10:54:39;8.40;99.90
66088;DHT22;52872;52.994;6.940;2023-02-01T10:57:24;8.30;99.90
66088;DHT22;52872;52.994;6.940;2023-02-01T10:59:56;8.40;99.90
66088;DHT22;52872;52.994;6.940;2023-02-01T11:02:32;8.30;99.90
66088;DHT22;52872;52.994;6.940;2023-02-01T11:05:04;8.50;99.90
66088;DHT22;52872;52.994;6.940;2023-02-01T11:07:32;8.50;99.90
66088;DHT22;52872;52.994;6.940;2023-02-01T11:09:59;8.60;99.90
66088;DHT22;52872;52.994;6.940;2023-02-01T11:12:32;8.60;99.90
66088;DHT22;52872;52.994;6.940;2023-02-01T11:15:20;8.60;99.90
66088;DHT22;52872;52.994;6.940;2023-02-01T11:17:50;8.60;99.90
66088;DHT22;52872;52.994;6.940;2023-02-01T11:22:56;8.60;99.90
66088;DHT22;52872;52.994;6.940;2023-02-01T11:25:24;8.60;99.90
66088;DHT22;52872;52.994;6.940;2023-02-01T11:27:54;8.70;99.90
66088;DHT22;52872;52.994;6.940;2023-02-01T11:30:38;8.70;99.90
66088;DHT22;52872;52.994;6.940;2023-02-01T11:33:13;8.80;99.90
66088;DHT22;52872;52.994;6.940;2023-02-01T11:35:42;8.80;99.90
66088;DHT22;52872;52.994;6.940;2023-02-01T11:38:31;8.90;99.90
66088;DHT22;52872;52.994;6.940;2023-02-01T11:41:14;9.00;99.90
66088;DHT22;52872;52.994;6.940;2023-02-01T11:43:57;9.00;99.90
66088;DHT22;52872;52.994;6.940;2023-02-01T11:46:32;9.00;99.90
66088;DHT22;52872;52.994;6.940;2023-02-01T11:49:23;9.00;99.90
66088;DHT22;52872;52.994;6.940;2023-02-01T11:52:12;9.00;99.90
66088;DHT22;52872;52.994;6.940;2023-02-01T12:03:30;9.50;99.90
66088;DHT22;52872;52.994;6.940;2023-02-01T12:13:49;9.20;99.90
66088;DHT22;52872;52.994;6.940;2023-02-01T12:19:15;9.10;99.90
66088;DHT22;52872;52.994;6.940;2023-02-01T12:23:01;9.10;99.90
66088;DHT22;52872;52.994;6.940;2023-02-01T12:33:17;9.20;99.90
66088;DHT22;52872;52.994;6.940;2023-02-01T12:36:12;9.40;99.90
66088;DHT22;52872;52.994;6.940;2023-02-01T12:38:45;9.50;99.90
66088;DHT22;52872;52.994;6.940;2023-02-01T12:43:56;9.70;99.90
66088;DHT22;52872;52.994;6.940;2023-02-01T12:46:35;9.80;99.90
66088;DHT22;52872;52.994;6.940;2023-02-01T12:55:22;10.30;99.90
66088;DHT22;52872;52.994;6.940;2023-02-01T12:58:07;10.50;99.90
66088;DHT22;52872;52.994;6.940;2023-02-01T13:00:42;10.30;99.90
66088;DHT22;52872;52.994;6.940;2023-02-01T13:03:38;10.10;99.90
66088;DHT22;52872;52.994;6.940;2023-02-01T13:08:46;9.90;99.90
66088;DHT22;52872;52.994;6.940;2023-02-01T13:11:37;9.90;99.90
66088;DHT22;52872;52.994;6.940;2023-02-01T13:17:15;10.10;99.90
66088;DHT22;52872;52.994;6.940;2023-02-01T13:22:35;10.10;99.90
66088;DHT22;52872;52.994;6.940;2023-02-01T13:25:04;10.10;99.90
66088;DHT22;52872;52.994;6.940;2023-02-01T13:27:35;10.10;99.90
66088;DHT22;52872;52.994;6.940;2023-02-01T13:30:21;10.20;99.90
66088;DHT22;52872;52.994;6.940;2023-02-01T13:39:08;10.60;99.90
66088;DHT22;52872;52.994;6.940;2023-02-01T13:46:58;10.30;99.90
66088;DHT22;52872;52.994;6.940;2023-02-01T13:49:29;10.20;99.90
66088;DHT22;52872;52.994;6.940;2023-02-01T13:51:58;10.00;99.90
66088;DHT22;52872;52.994;6.940;2023-02-01T13:54:32;9.90;99.90
66088;DHT22;52872;52.994;6.940;2023-02-01T13:57:00;9.90;99.90
66088;DHT22;52872;52.994;6.940;2023-02-01T14:05:12;9.70;99.90
66088;DHT22;52872;52.994;6.940;2023-02-01T14:10:57;9.60;99.90
66088;DHT22;52872;52.994;6.940;2023-02-01T14:13:37;9.50;99.90
66088;DHT22;52872;52.994;6.940;2023-02-01T14:21:18;9.70;99.90
66088;DHT22;52872;52.994;6.940;2023-02-01T14:26:44;9.70;99.90
66088;DHT22;52872;52.994;6.940;2023-02-01T14:34:48;9.50;99.90
66088;DHT22;52872;52.994;6.940;2023-02-01T14:42:27;9.60;99.90
66088;DHT22;52872;52.994;6.940;2023-02-01T14:47:42;9.60;99.90
66088;DHT22;52872;52.994;6.940;2023-02-01T15:01:27;9.60;99.90
66088;DHT22;52872;52.994;6.940;2023-02-01T15:04:14;9.60;99.90
66088;DHT22;52872;52.994;6.940;2023-02-01T15:06:51;9.80;99.90
66088;DHT22;52872;52.994;6.940;2023-02-01T15:12:05;9.70;99.90
66088;DHT22;52872;52.994;6.940;2023-02-01T15:14:37;9.60;99.90
66088;DHT22;52872;52.994;6.940;2023-02-01T15:17:19;9.60;99.90
66088;DHT22;52872;52.994;6.940;2023-02-01T15:19:57;9.60;99.90
66088;DHT22;52872;52.994;6.940;2023-02-01T15:22:25;9.50;99.90
66088;DHT22;52872;52.994;6.940;2023-02-01T15:24:54;9.40;99.90
66088;DHT22;52872;52.994;6.940;2023-02-01T15:27:21;9.40;99.90
66088;DHT22;52872;52.994;6.940;2023-02-01T15:29:48;9.40;99.90
66088;DHT22;52872;52.994;6.940;2023-02-01T15:32:36;9.30;99.90
66088;DHT22;52872;52.994;6.940;2023-02-01T15:35:30;9.40;99.90
66088;DHT22;52872;52.994;6.940;2023-02-01T15:37:53;9.40;99.90
66088;DHT22;52872;52.994;6.940;2023-02-01T15:43:19;9.60;99.90
66088;DHT22;52872;52.994;6.940;2023-02-01T15:45:47;9.60;99.90
66088;DHT22;52872;52.994;6.940;2023-02-01T15:48:22;9.60;99.90
66088;DHT22;52872;52.994;6.940;2023-02-01T15:50:49;9.60;99.90
66088;DHT22;52872;52.994;6.940;2023-02-01T15:53:20;9.50;99.90
66088;DHT22;52872;52.994;6.940;2023-02-01T15:55:52;9.50;99.90
66088;DHT22;52872;52.994;6.940;2023-02-01T15:58:22;9.40;99.90
66088;DHT22;52872;52.994;6.940;2023-02-01T16:00:59;9.40;99.90
66088;DHT22;52872;52.994;6.940;2023-02-01T16:06:12;9.40;99.90
66088;DHT22;52872;52.994;6.940;2023-02-01T16:08:55;9.30;99.90
66088;DHT22;52872;52.994;6.940;2023-02-01T16:11:32;9.20;99.90
66088;DHT22;52872;52.994;6.940;2023-02-01T16:14:00;9.10;99.90
66088;DHT22;52872;52.994;6.940;2023-02-01T16:16:31;9.00;99.90
66088;DHT22;52872;52.994;6.940;2023-02-01T16:18:58;9.00;99.90
66088;DHT22;52872;52.994;6.940;2023-02-01T16:21:25;8.90;99.90
66088;DHT22;52872;52.994;6.940;2023-02-01T16:23:52;8.80;99.90
66088;DHT22;52872;52.994;6.940;2023-02-01T16:26:20;8.80;99.90
66088;DHT22;52872;52.994;6.940;2023-02-01T16:28:47;8.70;99.90
66088;DHT22;52872;52.994;6.940;2023-02-01T16:31:17;8.60;99.90
66088;DHT22;52872;52.994;6.940;2023-02-01T16:33:50;8.60;99.90
66088;DHT22;52872;52.994;6.940;2023-02-01T16:36:18;8.50;99.90
66088;DHT22;52872;52.994;6.940;2023-02-01T16:38:46;8.50;99.90
66088;DHT22;52872;52.994;6.940;2023-02-01T16:41:17;8.40;99.90
66088;DHT22;52872;52.994;6.940;2023-02-01T16:43:44;8.40;99.90
66088;DHT22;52872;52.994;6.940;2023-02-01T16:46:14;8.40;99.90
66088;DHT22;52872;52.994;6.940;2023-02-01T16:48:46;8.40;99.90
66088;DHT22;52872;52.994;6.940;2023-02-01T16:51:16;8.40;99.90
66088;DHT22;52872;52.994;6.940;2023-02-01T16:53:44;8.40;99.90
66088;DHT22;52872;52.994;6.940;2023-02-01T16:56:29;8.30;99.90
66088;DHT22;52872;52.994;6.940;2023-02-01T16:59:00;8.30;99.90
66088;DHT22;52872;52.994;6.940;2023-02-01T17:01:28;8.30;99.90
66088;DHT22;52872;52.994;6.940;2023-02-01T17:03:55;8.30;99.90
66088;DHT22;52872;52.994;6.940;2023-02-01T17:06:25;8.20;99.90
66088;DHT22;52872;52.994;6.940;2023-02-01T17:08:55;8.20;99.90
66088;DHT22;52872;52.994;6.940;2023-02-01T17:11:25;8.20;99.90
66088;DHT22;52872;52.994;6.940;2023-02-01T17:13:53;8.20;99.90
66088;DHT22;52872;52.994;6.940;2023-02-01T17:16:30;8.20;99.90
66088;DHT22;52872;52.994;6.940;2023-02-01T17:19:01;8.20;99.90
66088;DHT22;52872;52.994;6.940;2023-02-01T17:21:31;8.10;99.90
66088;DHT22;52872;52.994;6.940;2023-02-01T17:24:01;8.10;99.90
66088;DHT22;52872;52.994;6.940;2023-02-01T17:26:28;8.10;99.90
66088;DHT22;52872;52.994;6.940;2023-02-01T17:28:55;8.10;99.90
66088;DHT22;52872;52.994;6.940;2023-02-01T17:31:23;8.10;99.90
66088;DHT22;52872;52.994;6.940;2023-02-01T17:33:50;8.10;99.90
66088;DHT22;52872;52.994;6.940;2023-02-01T17:36:17;8.10;99.90
66088;DHT22;52872;52.994;6.940;2023-02-01T17:38:44;8.10;99.90
66088;DHT22;52872;52.994;6.940;2023-02-01T17:41:22;8.10;99.90
66088;DHT22;52872;52.994;6.940;2023-02-01T17:43:54;8.10;99.90
66088;DHT22;52872;52.994;6.940;2023-02-01T17:46:21;8.10;99.90
66088;DHT22;52872;52.994;6.940;2023-02-01T17:48:54;8.10;99.90
66088;DHT22;52872;52.994;6.940;2023-02-01T17:51:24;8.10;99.90
66088;DHT22;52872;52.994;6.940;2023-02-01T17:53:53;8.10;99.90
66088;DHT22;52872;52.994;6.940;2023-02-01T17:56:24;8.10;99.90
66088;DHT22;52872;52.994;6.940;2023-02-01T17:58:51;8.00;99.90
66088;DHT22;52872;52.994;6.940;2023-02-01T18:01:23;7.90;99.90
66088;DHT22;52872;52.994;6.940;2023-02-01T18:03:53;7.90;99.90
66088;DHT22;52872;52.994;6.940;2023-02-01T18:06:24;7.90;99.90
66088;DHT22;52872;52.994;6.940;2023-02-01T18:08:56;7.80;99.90
66088;DHT22;52872;52.994;6.940;2023-02-01T18:11:23;7.70;99.90
66088;DHT22;52872;52.994;6.940;2023-02-01T18:13:52;7.70;99.90
66088;DHT22;52872;52.994;6.940;2023-02-01T18:16:26;7.70;99.90
66088;DHT22;52872;52.994;6.940;2023-02-01T18:18:53;7.60;99.90
66088;DHT22;52872;52.994;6.940;2023-02-01T18:21:21;7.60;99.90
66088;DHT22;52872;52.994;6.940;2023-02-01T18:23:49;7.50;99.90
66088;DHT22;52872;52.994;6.940;2023-02-01T18:26:17;7.50;99.90
66088;DHT22;52872;52.994;6.940;2023-02-01T18:28:44;7.50;99.90
66088;DHT22;52872;52.994;6.940;2023-02-01T18:31:27;7.50;99.90
66088;DHT22;52872;52.994;6.940;2023-02-01T18:33:57;7.50;99.90
66088;DHT22;52872;52.994;6.940;2023-02-01T18:36:25;7.40;99.90
66088;DHT22;52872;52.994;6.940;2023-02-01T18:38:53;7.40;99.90
66088;DHT22;52872;52.994;6.940;2023-02-01T18:41:22;7.40;99.90
66088;DHT22;52872;52.994;6.940;2023-02-01T18:43:51;7.40;99.90
66088;DHT22;52872;52.994;6.940;2023-02-01T18:46:18;7.50;99.90
66088;DHT22;52872;52.994;6.940;2023-02-01T18:48:47;7.50;99.90
66088;DHT22;52872;52.994;6.940;2023-02-01T18:51:18;7.50;99.90
66088;DHT22;52872;52.994;6.940;2023-02-01T18:53:46;7.50;99.90
66088;DHT22;52872;52.994;6.940;2023-02-01T18:56:15;7.50;99.90
66088;DHT22;52872;52.994;6.940;2023-02-01T18:58:44;7.50;99.90
66088;DHT22;52872;52.994;6.940;2023-02-01T19:01:15;7.40;99.90